Ray, Minnesota
Current Conditions -  °F | °C
As of 1:55 PM on Wednesday 26 Nov 2014 (Local Time) from KINL Reporting Station
Clear Clear  
Wind Chill: -8°   Ceiling: Unl
Heat Index:   Visibility: 10mi
Dew Point: -5°   Wind: 10mph
Humidity: 58%   Direction: 350°N
Pressure: 30.31"   Gusts: NA
Location:  48.41°N, 93.21°W
Report Text: KINL 261955Z AUTO 35009KT 10SM CLR M14/M21 A3031 RMK AO2 SLP293 T11391206
Loading
Personal Weather Stations






























Interactive Weather Map New forecast layout! Learn more

10-Day Weather Forecast

Advertisements
Track Severe Weather on mobile